createdAt,value
2019-02-03T00:00:21.036Z,9.33
2019-02-03T00:01:19.716Z,9.42
2019-02-03T00:02:18.317Z,9.26
2019-02-03T00:03:16.992Z,9.23
2019-02-03T00:04:15.557Z,9.1
2019-02-03T00:05:14.090Z,9.15
2019-02-03T00:06:12.641Z,9.24
2019-02-03T00:07:11.208Z,9.18
2019-02-03T00:08:09.806Z,9.26
2019-02-03T00:09:08.431Z,9.14
2019-02-03T00:10:07.024Z,9.1
2019-02-03T00:11:05.578Z,9.11
2019-02-03T00:12:04.119Z,9.14
2019-02-03T00:13:02.672Z,9.11
2019-02-03T00:14:01.304Z,9.17
2019-02-03T00:14:59.930Z,9.33
2019-02-03T00:15:58.545Z,9.32
2019-02-03T00:16:57.240Z,9.29
2019-02-03T00:17:55.803Z,9.1
2019-02-03T00:18:54.349Z,8.94
2019-02-03T00:19:53.095Z,8.95
2019-02-03T00:20:51.799Z,8.96
2019-02-03T00:21:50.376Z,9.1
2019-02-03T00:22:48.903Z,9.02
2019-02-03T00:23:47.668Z,9.04
2019-02-03T00:24:46.247Z,8.95
2019-02-03T00:25:44.894Z,9.11
2019-02-03T00:26:43.581Z,9.11
2019-02-03T00:27:42.129Z,9.15
2019-02-03T00:28:40.663Z,9.14
2019-02-03T00:29:39.217Z,9.18
2019-02-03T00:30:37.759Z,9.11
2019-02-03T00:31:36.289Z,9.13
2019-02-03T00:32:34.960Z,9.13
2019-02-03T00:33:33.559Z,8.95
2019-02-03T00:34:32.105Z,9.05
2019-02-03T00:35:30.640Z,9.14
2019-02-03T00:36:29.288Z,9.11
2019-02-03T00:37:27.895Z,8.99
2019-02-03T00:38:26.438Z,8.99
2019-02-03T00:39:25.003Z,8.99
2019-02-03T00:40:23.629Z,9.08
2019-02-03T00:41:22.183Z,9.05
2019-02-03T00:42:20.715Z,9.01
2019-02-03T00:43:19.335Z,8.92
2019-02-03T00:44:18.572Z,8.91
2019-02-03T00:45:16.435Z,8.98
2019-02-03T00:46:14.977Z,8.98
2019-02-03T00:47:13.504Z,8.92
2019-02-03T00:48:12.085Z,8.84
2019-02-03T00:49:10.617Z,8.77
2019-02-03T00:50:09.319Z,8.89
2019-02-03T00:51:09.891Z,8.84
2019-02-03T00:52:06.579Z,8.81
2019-02-03T00:53:05.344Z,8.83
2019-02-03T00:54:03.969Z,8.74
2019-02-03T00:55:02.527Z,8.65
2019-02-03T00:56:01.102Z,8.73
2019-02-03T00:56:59.674Z,8.58
2019-02-03T00:57:58.194Z,8.52
2019-02-03T00:58:56.750Z,8.66
2019-02-03T00:59:55.421Z,8.76
2019-02-03T01:00:54.059Z,8.77
2019-02-03T01:01:52.609Z,8.66
2019-02-03T01:02:51.238Z,8.66
2019-02-03T01:03:49.859Z,8.76
2019-02-03T01:04:48.392Z,8.73
2019-02-03T01:05:47.042Z,8.68
2019-02-03T01:06:45.690Z,8.66
2019-02-03T01:07:44.267Z,8.66
2019-02-03T01:08:42.800Z,8.56
2019-02-03T01:09:41.423Z,8.68
2019-02-03T01:10:39.966Z,8.77
2019-02-03T01:11:38.543Z,8.76
2019-02-03T01:12:37.112Z,8.7
2019-02-03T01:13:35.704Z,8.73
2019-02-03T01:14:34.241Z,8.56
2019-02-03T01:15:32.769Z,8.63
2019-02-03T01:16:31.353Z,8.76
2019-02-03T01:17:29.970Z,8.77
2019-02-03T01:18:28.617Z,8.73
2019-02-03T01:19:27.244Z,8.8
2019-02-03T01:20:25.902Z,8.8
2019-02-03T01:21:24.457Z,8.7
2019-02-03T01:22:22.969Z,8.62
2019-02-03T01:23:21.523Z,8.65
2019-02-03T01:24:20.182Z,8.62
2019-02-03T01:25:18.741Z,8.48
2019-02-03T01:26:17.442Z,8.56
2019-02-03T01:27:16.078Z,8.66
2019-02-03T01:28:14.673Z,8.66
2019-02-03T01:29:13.294Z,8.86
2019-02-03T01:30:11.836Z,8.79
2019-02-03T01:31:10.391Z,8.87
2019-02-03T01:32:08.997Z,8.84
2019-02-03T01:33:07.581Z,8.86
2019-02-03T01:34:06.139Z,8.73
2019-02-03T01:35:04.698Z,8.73
2019-02-03T01:36:03.257Z,8.62
2019-02-03T01:37:01.808Z,8.77
2019-02-03T01:38:00.381Z,8.83
2019-02-03T01:38:58.923Z,8.83
2019-02-03T01:39:57.708Z,8.74
2019-02-03T01:40:56.246Z,8.68
2019-02-03T01:41:54.825Z,8.55
2019-02-03T01:42:53.596Z,8.45
2019-02-03T01:43:52.155Z,8.58
2019-02-03T01:44:50.696Z,8.65
2019-02-03T01:45:49.313Z,8.55
2019-02-03T01:46:48.004Z,8.56
2019-02-03T01:47:46.539Z,8.5
2019-02-03T01:48:45.224Z,8.41
2019-02-03T01:49:43.863Z,8.43
2019-02-03T01:50:42.405Z,8.41
2019-02-03T01:51:41.192Z,8.43
2019-02-03T01:52:39.755Z,8.41
2019-02-03T01:53:38.314Z,8.4
2019-02-03T01:54:36.908Z,8.47
2019-02-03T01:55:35.533Z,8.45
2019-02-03T01:56:34.213Z,8.45
2019-02-03T01:57:32.829Z,8.41
2019-02-03T01:58:31.419Z,8.25
2019-02-03T01:59:29.951Z,8.23
2019-02-03T02:00:28.606Z,8.07
2019-02-03T02:01:27.425Z,8.05
2019-02-03T02:02:26.029Z,8.04
2019-02-03T02:03:24.576Z,8.05
2019-02-03T02:04:23.146Z,8.15
2019-02-03T02:05:21.739Z,8.22
2019-02-03T02:06:20.362Z,8.11
2019-02-03T02:07:18.901Z,7.86
2019-02-03T02:08:17.569Z,8.04
2019-02-03T02:09:16.113Z,8.18
2019-02-03T02:10:14.695Z,8.1
2019-02-03T02:11:13.373Z,8.02
2019-02-03T02:12:12.032Z,8.08
2019-02-03T02:13:10.581Z,8.02
2019-02-03T02:14:09.217Z,7.85
2019-02-03T02:15:07.881Z,8.02
2019-02-03T02:16:06.433Z,8.07
2019-02-03T02:17:04.986Z,8.05
2019-02-03T02:18:03.547Z,8.1
2019-02-03T02:19:02.069Z,8.02
2019-02-03T02:20:00.609Z,8.07
2019-02-03T02:20:59.302Z,8.05
2019-02-03T02:21:58.034Z,8.05
2019-02-03T02:22:56.594Z,8.08
2019-02-03T02:23:55.363Z,8.02
2019-02-03T02:24:54.017Z,7.87
2019-02-03T02:25:52.566Z,7.87
2019-02-03T02:26:51.120Z,8.01
2019-02-03T02:27:49.729Z,7.9
2019-02-03T02:28:48.224Z,7.93
2019-02-03T02:29:46.766Z,7.79
2019-02-03T02:30:45.532Z,7.9
2019-02-03T02:31:44.193Z,7.69
2019-02-03T02:32:42.750Z,7.71
2019-02-03T02:33:42.042Z,7.92
2019-02-03T02:34:40.652Z,7.72
2019-02-03T02:35:39.493Z,7.82
2019-02-03T02:36:38.036Z,7.87
2019-02-03T02:37:36.658Z,7.79
2019-02-03T02:38:35.279Z,7.75
2019-02-03T02:39:35.311Z,7.69
2019-02-03T02:40:32.382Z,7.82
2019-02-03T02:41:30.927Z,7.74
2019-02-03T02:42:29.445Z,7.71
2019-02-03T02:43:27.995Z,7.71
2019-02-03T02:44:26.550Z,7.75
2019-02-03T02:45:25.235Z,7.6
2019-02-03T02:46:23.910Z,7.64
2019-02-03T02:47:22.418Z,7.67
2019-02-03T02:48:21.198Z,7.64
2019-02-03T02:49:19.849Z,7.45
2019-02-03T02:50:18.531Z,7.52
2019-02-03T02:51:17.092Z,7.48
2019-02-03T02:52:15.774Z,7.71
2019-02-03T02:53:14.340Z,7.83
2019-02-03T02:54:12.900Z,7.83
2019-02-03T02:55:11.732Z,7.83
2019-02-03T02:56:10.317Z,7.83
2019-02-03T02:57:08.867Z,7.71
2019-02-03T02:58:07.583Z,7.79
2019-02-03T02:59:06.222Z,7.71
2019-02-03T03:00:04.697Z,7.82
2019-02-03T03:01:03.293Z,7.83
2019-02-03T03:02:01.863Z,7.89
2019-02-03T03:03:00.406Z,8
2019-02-03T03:03:59.059Z,7.87
2019-02-03T03:04:57.629Z,7.85
2019-02-03T03:05:56.414Z,7.72
2019-02-03T03:06:55.076Z,7.8
2019-02-03T03:07:53.689Z,7.75
2019-02-03T03:08:52.263Z,7.83
2019-02-03T03:09:50.805Z,7.8
2019-02-03T03:10:49.353Z,7.79
2019-02-03T03:11:47.915Z,7.95
2019-02-03T03:12:46.465Z,7.97
2019-02-03T03:13:45.082Z,8.04
2019-02-03T03:14:43.690Z,8.11
2019-02-03T03:15:42.264Z,8.04
2019-02-03T03:16:40.797Z,7.95
2019-02-03T03:17:39.535Z,7.75
2019-02-03T03:18:38.090Z,7.63
2019-02-03T03:19:36.622Z,7.52
2019-02-03T03:20:35.246Z,7.49
2019-02-03T03:21:33.827Z,7.42
2019-02-03T03:22:32.495Z,7.45
2019-02-03T03:23:31.043Z,7.42
2019-02-03T03:24:29.577Z,7.32
2019-02-03T03:25:28.138Z,7.31
2019-02-03T03:26:26.657Z,7.24
2019-02-03T03:27:25.190Z,7.3
2019-02-03T03:28:23.755Z,7.32
2019-02-03T03:29:22.328Z,7.34
2019-02-03T03:30:20.958Z,7.37
2019-02-03T03:31:19.543Z,7.27
2019-02-03T03:32:18.156Z,7.27
2019-02-03T03:33:16.708Z,7.23
2019-02-03T03:34:15.360Z,7.24
2019-02-03T03:35:13.923Z,7.2
2019-02-03T03:36:12.451Z,7.09
2019-02-03T03:37:11.068Z,7.02
2019-02-03T03:38:09.766Z,7.23
2019-02-03T03:39:08.404Z,6.94
2019-02-03T03:40:07.043Z,6.95
2019-02-03T03:41:05.637Z,7.1
2019-02-03T03:42:04.187Z,7.24
2019-02-03T03:43:02.744Z,7.2
2019-02-03T03:44:01.403Z,7.15
2019-02-03T03:44:59.938Z,7.12
2019-02-03T03:45:58.496Z,7.15
2019-02-03T03:46:57.055Z,7.24
2019-02-03T03:47:55.753Z,7.39
2019-02-03T03:48:54.299Z,7.42
2019-02-03T03:49:52.864Z,7.39
2019-02-03T03:50:51.444Z,7.2
2019-02-03T03:51:49.994Z,7.17
2019-02-03T03:52:48.559Z,7.07
2019-02-03T03:53:47.093Z,6.95
2019-02-03T03:54:45.659Z,7.09
2019-02-03T03:55:44.204Z,7.17
2019-02-03T03:56:42.802Z,7.09
2019-02-03T03:57:41.450Z,7.21
2019-02-03T03:58:39.950Z,7.23
2019-02-03T03:59:38.500Z,7.25
2019-02-03T04:00:37.049Z,7.23
2019-02-03T04:01:35.784Z,7.16
2019-02-03T04:02:34.336Z,7.16
2019-02-03T04:03:32.989Z,7.17
2019-02-03T04:04:31.646Z,7.17
2019-02-03T04:05:30.203Z,7.1
2019-02-03T04:06:28.749Z,7.02
2019-02-03T04:07:27.317Z,7.15
2019-02-03T04:08:25.870Z,7.2
2019-02-03T04:09:24.428Z,7.3
2019-02-03T04:10:23.002Z,7.2
2019-02-03T04:11:21.677Z,7.16
2019-02-03T04:12:20.224Z,7.25
2019-02-03T04:13:18.786Z,7.23
2019-02-03T04:14:17.411Z,7.16
2019-02-03T04:15:15.942Z,7.15
2019-02-03T04:16:14.485Z,7.24
2019-02-03T04:17:13.209Z,7.27
2019-02-03T04:18:11.925Z,7.3
2019-02-03T04:19:10.468Z,7.23
2019-02-03T04:20:09.049Z,7.21
2019-02-03T04:21:07.576Z,7.27
2019-02-03T04:22:06.109Z,7.34
2019-02-03T04:23:04.646Z,7.21
2019-02-03T04:24:03.277Z,7.32
2019-02-03T04:25:01.887Z,7.31
2019-02-03T04:26:00.444Z,7.31
2019-02-03T04:26:58.997Z,7.25
2019-02-03T04:27:57.746Z,7.27
2019-02-03T04:28:56.299Z,7.28
2019-02-03T04:29:54.917Z,7.24
2019-02-03T04:30:53.604Z,7.13
2019-02-03T04:31:52.149Z,7.2
2019-02-03T04:32:50.711Z,7.07
2019-02-03T04:33:49.262Z,6.89
2019-02-03T04:34:47.859Z,6.8
2019-02-03T04:35:46.396Z,6.76
2019-02-03T04:36:45.162Z,6.92
2019-02-03T04:37:43.970Z,6.89
2019-02-03T04:38:42.534Z,6.98
2019-02-03T04:39:41.196Z,6.76
2019-02-03T04:40:39.777Z,6.8
2019-02-03T04:41:38.414Z,6.95
2019-02-03T04:42:36.884Z,6.97
2019-02-03T04:43:35.444Z,6.81
2019-02-03T04:44:33.972Z,6.95
2019-02-03T04:45:32.498Z,6.87
2019-02-03T04:46:31.049Z,6.87
2019-02-03T04:47:29.669Z,6.85
2019-02-03T04:48:28.200Z,6.64
2019-02-03T04:49:26.743Z,6.81
2019-02-03T04:50:25.296Z,6.59
2019-02-03T04:51:24.010Z,6.58
2019-02-03T04:52:22.564Z,6.56
2019-02-03T04:53:21.278Z,6.74
2019-02-03T04:54:19.925Z,6.79
2019-02-03T04:55:18.555Z,6.88
2019-02-03T04:56:17.089Z,6.76
2019-02-03T04:57:15.638Z,6.66
2019-02-03T04:58:14.256Z,6.62
2019-02-03T04:59:12.846Z,6.67
2019-02-03T05:00:11.415Z,6.55
2019-02-03T05:01:09.935Z,6.69
2019-02-03T05:02:08.514Z,6.61
2019-02-03T05:03:07.074Z,6.74
2019-02-03T05:04:05.630Z,6.84
2019-02-03T05:05:04.249Z,6.7
2019-02-03T05:06:02.813Z,6.73
2019-02-03T05:07:01.314Z,7.02
2019-02-03T05:07:59.931Z,6.87
2019-02-03T05:09:10.353Z,6.74
2019-02-03T05:09:57.111Z,6.8
2019-02-03T05:10:55.836Z,6.89
2019-02-03T05:11:54.385Z,6.99
2019-02-03T05:12:52.928Z,7.2
2019-02-03T05:13:51.480Z,7.13
2019-02-03T05:14:50.051Z,7.15
2019-02-03T05:15:48.596Z,7.06
2019-02-03T05:16:47.324Z,7.2
2019-02-03T05:17:45.917Z,7.12
2019-02-03T05:18:44.468Z,7.1
2019-02-03T05:19:43.091Z,7.05
2019-02-03T05:20:41.711Z,6.8
2019-02-03T05:21:40.253Z,6.85
2019-02-03T05:22:38.809Z,6.89
2019-02-03T05:23:37.539Z,6.73
2019-02-03T05:24:36.099Z,6.64
2019-02-03T05:25:34.658Z,6.49
2019-02-03T05:26:33.226Z,6.49
2019-02-03T05:27:31.787Z,6.69
2019-02-03T05:28:30.329Z,6.84
2019-02-03T05:29:28.902Z,6.84
2019-02-03T05:30:27.627Z,6.84
2019-02-03T05:31:26.216Z,6.64
2019-02-03T05:32:24.769Z,6.64
2019-02-03T05:33:23.522Z,6.69
2019-02-03T05:34:22.057Z,6.7
2019-02-03T05:35:20.591Z,6.51
2019-02-03T05:36:19.193Z,6.69
2019-02-03T05:37:17.799Z,6.84
2019-02-03T05:38:16.357Z,6.92
2019-02-03T05:39:24.266Z,6.92
2019-02-03T05:40:13.716Z,6.81
2019-02-03T05:41:12.354Z,6.85
2019-02-03T05:42:10.915Z,6.76
2019-02-03T05:43:09.792Z,6.79
2019-02-03T05:44:08.217Z,6.84
2019-02-03T05:45:06.749Z,6.87
2019-02-03T05:46:05.433Z,6.7
2019-02-03T05:47:04.001Z,6.7
2019-02-03T05:48:02.564Z,6.56
2019-02-03T05:49:01.119Z,6.67
2019-02-03T05:49:59.687Z,6.8
2019-02-03T05:50:58.225Z,6.81
2019-02-03T05:51:56.763Z,6.76
2019-02-03T05:52:55.429Z,6.66
2019-02-03T05:53:54.055Z,6.58
2019-02-03T05:54:52.637Z,6.54
2019-02-03T05:55:51.338Z,6.51
2019-02-03T05:56:50.071Z,6.52
2019-02-03T05:57:48.695Z,6.7
2019-02-03T05:58:47.185Z,6.8
2019-02-03T05:59:45.731Z,6.73
2019-02-03T06:00:44.281Z,6.67
2019-02-03T06:01:42.983Z,6.59
2019-02-03T06:02:41.618Z,6.46
2019-02-03T06:03:40.252Z,6.48
2019-02-03T06:04:38.793Z,6.46
2019-02-03T06:05:37.416Z,6.61
2019-02-03T06:06:35.999Z,6.55
2019-02-03T06:07:34.530Z,6.55
2019-02-03T06:08:33.255Z,6.43
2019-02-03T06:09:36.475Z,6.4
2019-02-03T06:10:30.360Z,6.38
2019-02-03T06:11:28.924Z,6.33
2019-02-03T06:12:27.460Z,6.56
2019-02-03T06:13:26.029Z,6.55
2019-02-03T06:14:24.609Z,6.55
2019-02-03T06:15:23.278Z,6.56
2019-02-03T06:16:21.991Z,6.66
2019-02-03T06:17:20.521Z,6.62
2019-02-03T06:18:19.156Z,6.79
2019-02-03T06:19:17.828Z,6.76
2019-02-03T06:20:16.363Z,6.69
2019-02-03T06:21:14.943Z,6.79
2019-02-03T06:22:13.558Z,6.71
2019-02-03T06:23:12.129Z,6.69
2019-02-03T06:24:10.667Z,6.76
2019-02-03T06:25:09.207Z,6.81
2019-02-03T06:26:07.865Z,6.79
2019-02-03T06:27:06.506Z,6.7
2019-02-03T06:28:05.078Z,6.76
2019-02-03T06:29:03.688Z,6.66
2019-02-03T06:30:02.266Z,6.73
2019-02-03T06:31:00.924Z,6.66
2019-02-03T06:31:59.540Z,6.61
2019-02-03T06:32:58.170Z,6.67
2019-02-03T06:33:56.713Z,6.48
2019-02-03T06:34:55.267Z,6.41
2019-02-03T06:35:53.808Z,6.36
2019-02-03T06:36:52.360Z,6.41
2019-02-03T06:37:50.910Z,6.59
2019-02-03T06:38:49.463Z,6.54
2019-02-03T06:39:48.945Z,6.59
2019-02-03T06:40:46.558Z,6.41
2019-02-03T06:41:45.266Z,6.44
2019-02-03T06:42:43.911Z,6.43
2019-02-03T06:43:42.439Z,6.34
2019-02-03T06:44:40.993Z,6.44
2019-02-03T06:45:39.672Z,6.37
2019-02-03T06:46:38.240Z,6.34
2019-02-03T06:47:36.796Z,6.46
2019-02-03T06:48:35.553Z,6.44
2019-02-03T06:49:34.093Z,6.4
2019-02-03T06:50:32.633Z,6.4
2019-02-03T06:51:31.169Z,6.49
2019-02-03T06:52:29.765Z,6.43
2019-02-03T06:53:28.328Z,6.48
2019-02-03T06:54:26.889Z,6.41
2019-02-03T06:55:25.544Z,6.43
2019-02-03T06:56:24.154Z,6.44
2019-02-03T06:57:22.691Z,6.67
2019-02-03T06:58:21.347Z,6.61
2019-02-03T06:59:19.978Z,6.61
2019-02-03T07:00:18.515Z,6.67
2019-02-03T07:01:17.070Z,6.73
2019-02-03T07:02:15.722Z,6.88
2019-02-03T07:03:14.279Z,6.66
2019-02-03T07:04:14.647Z,6.62
2019-02-03T07:05:11.366Z,6.67
2019-02-03T07:06:09.911Z,6.77
2019-02-03T07:07:08.456Z,6.77
2019-02-03T07:08:06.997Z,6.66
2019-02-03T07:09:05.740Z,6.58
2019-02-03T07:10:04.313Z,6.55
2019-02-03T07:11:02.831Z,6.48
2019-02-03T07:12:01.448Z,6.46
2019-02-03T07:13:00.099Z,6.55
2019-02-03T07:13:58.671Z,6.61
2019-02-03T07:14:57.346Z,6.59
2019-02-03T07:15:56.066Z,6.58
2019-02-03T07:16:54.661Z,6.67
2019-02-03T07:17:53.270Z,6.66
2019-02-03T07:18:51.924Z,6.71
2019-02-03T07:19:50.474Z,6.61
2019-02-03T07:20:49.280Z,6.55
2019-02-03T07:21:49.452Z,6.67
2019-02-03T07:22:46.585Z,6.69
2019-02-03T07:23:45.131Z,6.73
2019-02-03T07:24:43.698Z,6.76
2019-02-03T07:25:42.256Z,6.8
2019-02-03T07:26:40.819Z,6.74
2019-02-03T07:27:39.378Z,6.85
2019-02-03T07:28:37.957Z,6.77
2019-02-03T07:29:36.523Z,6.77
2019-02-03T07:30:35.077Z,6.69
2019-02-03T07:31:33.845Z,6.62
2019-02-03T07:32:32.592Z,6.55
2019-02-03T07:33:31.613Z,6.48
2019-02-03T07:34:30.226Z,6.51
2019-02-03T07:35:28.797Z,6.56
2019-02-03T07:36:27.456Z,6.56
2019-02-03T07:37:26.000Z,6.67
2019-02-03T07:38:24.547Z,6.59
2019-02-03T07:39:23.145Z,6.56
2019-02-03T07:40:21.777Z,6.71
2019-02-03T07:41:20.285Z,6.76
2019-02-03T07:42:18.843Z,6.58
2019-02-03T07:43:17.424Z,6.67
2019-02-03T07:44:15.993Z,6.59
2019-02-03T07:45:14.691Z,6.48
2019-02-03T07:46:13.361Z,6.55
2019-02-03T07:47:12.051Z,6.58
2019-02-03T07:48:10.613Z,6.55
2019-02-03T07:49:09.205Z,6.56
2019-02-03T07:50:07.854Z,6.66
2019-02-03T07:51:06.449Z,6.59
2019-02-03T07:52:05.024Z,6.59
2019-02-03T07:53:03.856Z,6.67
2019-02-03T07:54:08.209Z,6.74
2019-02-03T07:55:00.943Z,6.77
2019-02-03T07:55:59.839Z,6.8
2019-02-03T07:56:58.370Z,6.8
2019-02-03T07:57:56.960Z,6.76
2019-02-03T07:58:55.508Z,6.77
2019-02-03T07:59:54.138Z,6.74
2019-02-03T08:00:52.694Z,6.67
2019-02-03T08:01:51.500Z,6.71
2019-02-03T08:02:50.181Z,6.74
2019-02-03T08:03:48.749Z,6.67
2019-02-03T08:04:47.477Z,6.79
2019-02-03T08:05:46.167Z,6.77
2019-02-03T08:06:44.715Z,6.76
2019-02-03T08:07:43.274Z,6.8
2019-02-03T08:08:41.830Z,6.84
2019-02-03T08:09:40.438Z,6.73
2019-02-03T08:10:39.058Z,6.71
2019-02-03T08:11:37.710Z,6.81
2019-02-03T08:12:36.303Z,6.79
2019-02-03T08:13:34.873Z,6.79
2019-02-03T08:14:33.695Z,6.84
2019-02-03T08:15:32.291Z,6.76
2019-02-03T08:16:30.931Z,6.81
2019-02-03T08:17:29.509Z,6.92
2019-02-03T08:18:28.061Z,6.92
2019-02-03T08:19:26.639Z,7.06
2019-02-03T08:20:25.249Z,6.99
2019-02-03T08:21:23.896Z,7.05
2019-02-03T08:22:22.446Z,7.25
2019-02-03T08:23:21.058Z,7.3
2019-02-03T08:24:19.818Z,7.39
2019-02-03T08:25:18.356Z,7.3
2019-02-03T08:26:17.444Z,7.2
2019-02-03T08:27:16.032Z,7.27
2019-02-03T08:28:14.591Z,7.37
2019-02-03T08:29:14.694Z,7.25
2019-02-03T08:30:11.914Z,7.32
2019-02-03T08:31:10.460Z,7.35
2019-02-03T08:32:09.055Z,7.3
2019-02-03T08:33:07.694Z,7.31
2019-02-03T08:34:06.304Z,7.39
2019-02-03T08:35:04.910Z,7.3
2019-02-03T08:36:03.579Z,7.2
2019-02-03T08:37:02.226Z,7.13
2019-02-03T08:38:00.779Z,7.24
2019-02-03T08:38:59.491Z,7.27
2019-02-03T08:39:58.034Z,7.17
2019-02-03T08:40:56.579Z,7.16
2019-02-03T08:41:55.210Z,7.3
2019-02-03T08:42:55.714Z,7.15
2019-02-03T08:43:52.297Z,7.31
2019-02-03T08:44:50.844Z,7.28
2019-02-03T08:45:49.441Z,7.25
2019-02-03T08:46:48.067Z,7.27
2019-02-03T08:47:46.587Z,7.17
2019-02-03T08:48:45.264Z,7.34
2019-02-03T08:49:44.006Z,7.24
2019-02-03T08:50:42.553Z,7.3
2019-02-03T08:51:41.259Z,7.35
2019-02-03T08:52:40.629Z,7.46
2019-02-03T08:53:38.489Z,7.39
2019-02-03T08:54:46.547Z,7.4
2019-02-03T08:55:35.805Z,7.37
2019-02-03T08:56:34.407Z,7.34
2019-02-03T08:57:32.947Z,7.34
2019-02-03T08:58:31.839Z,6.99
2019-02-03T08:59:30.353Z,7.13
2019-02-03T09:00:28.953Z,7.16
2019-02-03T09:01:29.538Z,7.31
2019-02-03T09:02:28.121Z,7.32
2019-02-03T09:03:27.251Z,7.27
2019-02-03T09:04:25.229Z,7.25
2019-02-03T09:05:23.972Z,7.2
2019-02-03T09:06:22.504Z,7.17
2019-02-03T09:07:21.085Z,7.27
2019-02-03T09:08:19.855Z,7.4
2019-02-03T09:09:18.421Z,7.42
2019-02-03T09:10:17.011Z,7.48
2019-02-03T09:11:15.598Z,7.31
2019-02-03T09:12:15.831Z,7.46
2019-02-03T09:13:12.769Z,7.53
2019-02-03T09:14:11.336Z,7.52
2019-02-03T09:15:09.894Z,7.53
2019-02-03T09:16:08.440Z,7.39
2019-02-03T09:17:07.001Z,7.61
2019-02-03T09:18:05.756Z,7.72
2019-02-03T09:19:04.293Z,7.61
2019-02-03T09:20:02.883Z,7.61
2019-02-03T09:21:01.517Z,7.64
2019-02-03T09:22:00.118Z,7.75
2019-02-03T09:22:58.679Z,7.87
2019-02-03T09:23:57.278Z,7.89
2019-02-03T09:24:55.980Z,8.04
2019-02-03T09:27:36.338Z,8.02
2019-02-03T09:28:34.917Z,7.92
2019-02-03T09:29:33.733Z,7.9
2019-02-03T09:30:32.308Z,7.97
2019-02-03T09:31:30.889Z,8.1
2019-02-03T09:32:29.515Z,8.11
2019-02-03T09:33:28.087Z,8.05
2019-02-03T09:34:26.655Z,7.98
2019-02-03T09:35:25.361Z,7.79
2019-02-03T09:36:24.011Z,7.86
2019-02-03T09:37:22.524Z,7.95
2019-02-03T09:39:45.303Z,8.05
2019-02-03T09:40:43.859Z,8.11
2019-02-03T09:41:42.433Z,8.23
2019-02-03T09:42:40.964Z,8.23
2019-02-03T09:43:39.611Z,8.37
2019-02-03T09:44:38.180Z,8.38
2019-02-03T09:45:36.766Z,8.4
2019-02-03T09:46:35.516Z,8.33
2019-02-03T09:47:34.166Z,8.23
2019-02-03T09:48:32.697Z,8.23
2019-02-03T09:49:31.462Z,8.07
2019-02-03T09:50:30.171Z,8.1
2019-02-03T09:51:28.712Z,8.2
2019-02-03T09:52:27.253Z,8.05
2019-02-03T09:53:25.836Z,8.11
2019-02-03T09:54:24.364Z,8.01
2019-02-03T09:55:22.922Z,7.83
2019-02-03T09:56:21.462Z,8.01
2019-02-03T09:57:20.002Z,8.07
2019-02-03T09:58:18.542Z,8.01
2019-02-03T09:59:17.183Z,7.86
2019-02-03T10:00:16.212Z,8.01
2019-02-03T10:01:14.790Z,7.77
2019-02-03T10:02:13.328Z,7.53
2019-02-03T10:03:12.015Z,7.53
2019-02-03T10:04:10.597Z,7.4
2019-02-03T10:05:09.277Z,7.37
2019-02-03T10:06:08.094Z,7.52
2019-02-03T10:07:06.640Z,7.48
2019-02-03T10:08:05.339Z,7.53
2019-02-03T10:09:03.903Z,7.68
2019-02-03T10:10:02.508Z,7.77
2019-02-03T10:11:11.501Z,7.71
2019-02-03T10:11:59.695Z,7.72
2019-02-03T10:12:58.280Z,7.89
2019-02-03T10:13:56.841Z,7.97
2019-02-03T10:14:55.769Z,8.08
2019-02-03T10:15:54.335Z,7.89
2019-02-03T10:16:52.897Z,8.04
2019-02-03T10:17:51.547Z,8.01
2019-02-03T10:18:50.151Z,7.85
2019-02-03T10:19:48.672Z,7.93
2019-02-03T10:20:47.211Z,8.1
2019-02-03T10:21:45.835Z,8.07
2019-02-03T10:22:44.461Z,8.16
2019-02-03T10:23:42.960Z,8.16
2019-02-03T10:24:42.354Z,8.19
2019-02-03T10:25:40.256Z,8.11
2019-02-03T10:26:38.893Z,8.11
2019-02-03T10:27:37.681Z,7.85
2019-02-03T10:28:36.232Z,7.8
2019-02-03T10:29:34.797Z,7.75
2019-02-03T10:30:33.349Z,7.92
2019-02-03T10:31:31.884Z,7.92
2019-02-03T10:32:30.482Z,7.83
2019-02-03T10:33:28.971Z,7.93
2019-02-03T10:34:29.521Z,7.77
2019-02-03T10:35:26.053Z,7.87
2019-02-03T10:36:24.678Z,7.86
2019-02-03T10:37:23.252Z,7.95
2019-02-03T10:38:22.172Z,8.02
2019-02-03T10:39:20.753Z,8.08
2019-02-03T10:40:19.422Z,7.87
2019-02-03T10:41:23.855Z,7.93
2019-02-03T10:42:16.593Z,7.97
2019-02-03T10:43:15.140Z,7.86
2019-02-03T10:44:13.756Z,8.04
2019-02-03T10:45:12.314Z,8.01
2019-02-03T10:46:10.884Z,8.1
2019-02-03T10:47:09.636Z,8.07
2019-02-03T10:48:08.231Z,8.18
2019-02-03T10:49:06.784Z,8.26
2019-02-03T10:50:05.453Z,8.36
2019-02-03T10:51:04.097Z,8.29
2019-02-03T10:52:02.798Z,8.34
2019-02-03T10:53:01.411Z,8.47
2019-02-03T10:53:59.996Z,8.45
2019-02-03T10:54:58.626Z,8.44
2019-02-03T10:55:57.469Z,8.52
2019-02-03T10:56:56.004Z,8.43
2019-02-03T10:57:54.575Z,8.3
2019-02-03T10:58:53.181Z,8.26
2019-02-03T10:59:51.759Z,8.29
2019-02-03T11:00:50.315Z,8.45
2019-02-03T11:01:48.850Z,8.59
2019-02-03T11:02:47.661Z,8.62
2019-02-03T11:03:46.346Z,8.37
2019-02-03T11:04:44.881Z,8.4
2019-02-03T11:05:43.658Z,8.41
2019-02-03T11:06:42.190Z,8.41
2019-02-03T11:07:40.785Z,8.41
2019-02-03T11:08:39.424Z,8.41
2019-02-03T11:09:37.947Z,8.53
2019-02-03T11:10:36.484Z,8.36
2019-02-03T11:11:36.514Z,8.28
2019-02-03T11:12:33.660Z,8.37
2019-02-03T11:13:32.189Z,8.38
2019-02-03T11:14:30.799Z,8.36
2019-02-03T11:15:29.468Z,8.2
2019-02-03T11:16:28.117Z,8.23
2019-02-03T11:17:26.672Z,8.22
2019-02-03T11:18:25.379Z,8.29
2019-02-03T11:19:24.085Z,8.11
2019-02-03T11:20:22.658Z,8.18
2019-02-03T11:21:21.189Z,8.33
2019-02-03T11:22:19.711Z,8.26
2019-02-03T11:23:18.296Z,8.25
2019-02-03T11:24:16.949Z,8.2
2019-02-03T11:25:15.561Z,8.15
2019-02-03T11:26:14.182Z,8.18
2019-02-03T11:27:12.718Z,8.15
2019-02-03T11:28:11.550Z,8.28
2019-02-03T11:29:10.119Z,8.37
2019-02-03T11:30:08.748Z,8.52
2019-02-03T11:31:07.356Z,8.48
2019-02-03T11:32:05.915Z,8.56
2019-02-03T11:33:04.894Z,8.84
2019-02-03T11:34:03.058Z,8.89
2019-02-03T11:35:01.693Z,8.95
2019-02-03T11:36:00.405Z,8.96
2019-02-03T11:36:58.930Z,9.1
2019-02-03T11:37:57.715Z,8.92
2019-02-03T11:38:56.269Z,8.81
2019-02-03T11:39:54.873Z,8.84
2019-02-03T11:40:53.445Z,8.86
2019-02-03T11:41:52.007Z,8.58
2019-02-03T11:42:50.756Z,8.62
2019-02-03T11:43:49.409Z,8.55
2019-02-03T11:44:48.136Z,8.61
2019-02-03T11:45:46.668Z,8.73
2019-02-03T11:46:45.331Z,8.77
2019-02-03T11:47:44.066Z,8.81
2019-02-03T11:48:42.666Z,8.81
2019-02-03T11:49:41.505Z,8.77
2019-02-03T11:50:40.129Z,8.76
2019-02-03T11:51:38.721Z,8.68
2019-02-03T11:52:37.400Z,8.56
2019-02-03T11:53:36.014Z,8.63
2019-02-03T11:54:34.583Z,8.77
2019-02-03T11:55:33.144Z,8.63
2019-02-03T11:56:31.732Z,8.68
2019-02-03T11:57:30.409Z,8.68
2019-02-03T11:58:28.980Z,8.77
2019-02-03T11:59:27.603Z,8.76
2019-02-03T12:00:26.220Z,8.62
2019-02-03T12:01:24.819Z,8.68
2019-02-03T12:02:23.618Z,8.73
2019-02-03T12:03:22.259Z,8.45
2019-02-03T12:04:20.796Z,8.4
2019-02-03T12:05:19.324Z,8.5
2019-02-03T12:06:18.011Z,8.8
2019-02-03T12:07:16.673Z,8.77
2019-02-03T12:08:15.295Z,8.79
2019-02-03T12:09:14.086Z,8.74
2019-02-03T12:10:12.713Z,8.61
2019-02-03T12:11:11.299Z,8.47
2019-02-03T12:12:09.921Z,8.53
2019-02-03T12:13:08.482Z,8.52
2019-02-03T12:14:07.022Z,8.5
2019-02-03T12:15:05.637Z,8.47
2019-02-03T12:16:04.213Z,8.45
2019-02-03T12:17:02.862Z,8.33
2019-02-03T12:18:01.525Z,8.34
2019-02-03T12:19:00.233Z,8.47
2019-02-03T12:19:58.759Z,8.53
2019-02-03T12:20:57.327Z,8.58
2019-02-03T12:21:55.968Z,8.52
2019-02-03T12:22:54.537Z,8.62
2019-02-03T12:23:53.087Z,8.58
2019-02-03T12:24:51.672Z,8.52
2019-02-03T12:25:50.265Z,8.58
2019-02-03T12:26:48.781Z,8.43
2019-02-03T12:27:47.360Z,8.65
2019-02-03T12:28:46.022Z,8.83
2019-02-03T12:29:44.721Z,8.81
2019-02-03T12:30:43.670Z,8.74
2019-02-03T12:31:42.135Z,8.68
2019-02-03T12:32:40.682Z,8.66
2019-02-03T12:33:39.217Z,8.63
2019-02-03T12:36:19.607Z,8.47
2019-02-03T12:37:18.195Z,8.45
2019-02-03T13:00:28.060Z,8.65
2019-02-03T13:01:26.782Z,8.65
2019-02-03T13:02:25.379Z,8.86
2019-02-03T13:03:25.311Z,8.77
2019-02-03T13:04:22.643Z,8.66
2019-02-03T13:05:21.235Z,8.52
2019-02-03T13:06:20.061Z,8.47
2019-02-03T13:07:18.630Z,8.48
2019-02-03T13:08:17.271Z,8.56
2019-02-03T13:09:15.958Z,8.68
2019-02-03T13:10:16.530Z,8.47
2019-02-03T13:11:13.063Z,8.47
2019-02-03T13:12:12.094Z,8.55
2019-02-03T13:14:57.426Z,8.62
2019-02-03T13:15:56.035Z,8.52
2019-02-03T13:16:54.670Z,8.45
2019-02-03T13:17:53.226Z,8.52
2019-02-03T13:18:51.950Z,8.62
2019-02-03T13:19:50.545Z,8.5
2019-02-03T13:20:49.116Z,8.48
2019-02-03T13:21:47.889Z,8.45
2019-02-03T13:22:46.607Z,8.65
2019-02-03T13:23:45.353Z,8.74
2019-02-03T13:24:43.775Z,8.63
2019-02-03T13:25:42.348Z,8.68
2019-02-03T13:26:40.890Z,8.5
2019-02-03T13:27:39.420Z,8.44
2019-02-03T13:28:38.137Z,8.45
2019-02-03T13:29:36.676Z,8.38
2019-02-03T13:30:35.347Z,8.43
2019-02-03T13:31:33.990Z,8.36